sensor_id;sensor_type;location;lat;lon;timestamp;P1;durP1;ratioP1;P2;durP2;ratioP2
39654;SDS011;25336;59.944;11.010;2023-03-23T00:02:26;21.98;;;5.00;;
39654;SDS011;25336;59.944;11.010;2023-03-23T00:04:53;18.60;;;4.57;;
39654;SDS011;25336;59.944;11.010;2023-03-23T00:07:22;19.10;;;4.93;;
39654;SDS011;25336;59.944;11.010;2023-03-23T00:09:52;17.88;;;4.00;;
39654;SDS011;25336;59.944;11.010;2023-03-23T00:12:20;20.52;;;4.97;;
39654;SDS011;25336;59.944;11.010;2023-03-23T00:15:02;18.55;;;5.00;;
39654;SDS011;25336;59.944;11.010;2023-03-23T00:17:29;28.83;;;5.68;;
39654;SDS011;25336;59.944;11.010;2023-03-23T00:19:55;18.38;;;5.13;;
39654;SDS011;25336;59.944;11.010;2023-03-23T00:22:21;22.27;;;5.32;;
39654;SDS011;25336;59.944;11.010;2023-03-23T00:24:49;23.67;;;4.95;;
39654;SDS011;25336;59.944;11.010;2023-03-23T00:27:16;18.02;;;4.50;;
39654;SDS011;25336;59.944;11.010;2023-03-23T00:29:42;21.10;;;3.80;;
39654;SDS011;25336;59.944;11.010;2023-03-23T00:32:10;17.40;;;4.93;;
39654;SDS011;25336;59.944;11.010;2023-03-23T00:34:38;26.65;;;5.78;;
39654;SDS011;25336;59.944;11.010;2023-03-23T00:37:05;22.00;;;5.18;;
39654;SDS011;25336;59.944;11.010;2023-03-23T00:39:32;19.17;;;4.78;;
39654;SDS011;25336;59.944;11.010;2023-03-23T00:42:01;26.85;;;6.15;;
39654;SDS011;25336;59.944;11.010;2023-03-23T00:44:28;20.58;;;4.22;;
39654;SDS011;25336;59.944;11.010;2023-03-23T00:46:55;19.33;;;5.18;;
39654;SDS011;25336;59.944;11.010;2023-03-23T00:49:22;17.63;;;4.28;;
39654;SDS011;25336;59.944;11.010;2023-03-23T00:51:55;21.15;;;5.03;;
39654;SDS011;25336;59.944;11.010;2023-03-23T00:54:22;21.27;;;4.72;;
39654;SDS011;25336;59.944;11.010;2023-03-23T00:56:49;22.98;;;5.07;;
39654;SDS011;25336;59.944;11.010;2023-03-23T00:59:15;24.25;;;4.57;;
39654;SDS011;25336;59.944;11.010;2023-03-23T01:01:42;18.92;;;4.80;;
39654;SDS011;25336;59.944;11.010;2023-03-23T01:04:09;24.08;;;4.50;;
39654;SDS011;25336;59.944;11.010;2023-03-23T01:06:37;18.83;;;5.10;;
39654;SDS011;25336;59.944;11.010;2023-03-23T01:09:05;26.50;;;5.30;;
39654;SDS011;25336;59.944;11.010;2023-03-23T01:11:32;23.98;;;5.13;;
39654;SDS011;25336;59.944;11.010;2023-03-23T01:13:58;17.88;;;4.32;;
39654;SDS011;25336;59.944;11.010;2023-03-23T01:16:25;20.15;;;4.97;;
39654;SDS011;25336;59.944;11.010;2023-03-23T01:18:50;24.98;;;4.68;;
39654;SDS011;25336;59.944;11.010;2023-03-23T01:21:17;16.40;;;4.95;;
39654;SDS011;25336;59.944;11.010;2023-03-23T01:23:45;18.02;;;4.35;;
39654;SDS011;25336;59.944;11.010;2023-03-23T01:26:12;19.23;;;4.65;;
39654;SDS011;25336;59.944;11.010;2023-03-23T01:28:40;14.90;;;4.25;;
39654;SDS011;25336;59.944;11.010;2023-03-23T01:31:08;15.52;;;4.18;;
39654;SDS011;25336;59.944;11.010;2023-03-23T01:33:37;28.85;;;6.22;;
39654;SDS011;25336;59.944;11.010;2023-03-23T01:36:07;15.30;;;4.22;;
39654;SDS011;25336;59.944;11.010;2023-03-23T01:38:37;19.58;;;5.53;;
39654;SDS011;25336;59.944;11.010;2023-03-23T01:41:03;19.38;;;4.22;;
39654;SDS011;25336;59.944;11.010;2023-03-23T01:43:30;20.10;;;4.30;;
39654;SDS011;25336;59.944;11.010;2023-03-23T01:45:56;23.27;;;4.85;;
39654;SDS011;25336;59.944;11.010;2023-03-23T01:51:23;19.30;;;4.15;;
39654;SDS011;25336;59.944;11.010;2023-03-23T01:53:52;18.33;;;5.43;;
39654;SDS011;25336;59.944;11.010;2023-03-23T01:56:22;22.08;;;4.13;;
39654;SDS011;25336;59.944;11.010;2023-03-23T01:58:50;25.77;;;5.28;;
39654;SDS011;25336;59.944;11.010;2023-03-23T02:01:17;23.42;;;4.38;;
39654;SDS011;25336;59.944;11.010;2023-03-23T02:03:44;25.08;;;5.20;;
39654;SDS011;25336;59.944;11.010;2023-03-23T02:06:11;18.58;;;4.22;;
39654;SDS011;25336;59.944;11.010;2023-03-23T02:08:37;15.98;;;4.43;;
39654;SDS011;25336;59.944;11.010;2023-03-23T02:11:12;28.65;;;5.88;;
39654;SDS011;25336;59.944;11.010;2023-03-23T02:13:42;21.65;;;5.32;;
39654;SDS011;25336;59.944;11.010;2023-03-23T02:22:01;26.77;;;4.97;;
39654;SDS011;25336;59.944;11.010;2023-03-23T02:24:52;22.77;;;5.85;;
39654;SDS011;25336;59.944;11.010;2023-03-23T02:35:37;28.17;;;5.53;;
39654;SDS011;25336;59.944;11.010;2023-03-23T02:38:14;21.67;;;4.43;;
39654;SDS011;25336;59.944;11.010;2023-03-23T02:40:44;23.17;;;5.28;;
39654;SDS011;25336;59.944;11.010;2023-03-23T02:43:13;24.60;;;5.40;;
39654;SDS011;25336;59.944;11.010;2023-03-23T02:45:42;24.70;;;4.78;;
39654;SDS011;25336;59.944;11.010;2023-03-23T02:48:09;27.10;;;6.55;;
39654;SDS011;25336;59.944;11.010;2023-03-23T02:50:40;19.08;;;4.40;;
39654;SDS011;25336;59.944;11.010;2023-03-23T02:53:10;26.27;;;4.85;;
39654;SDS011;25336;59.944;11.010;2023-03-23T02:55:39;18.20;;;4.75;;
39654;SDS011;25336;59.944;11.010;2023-03-23T02:58:11;26.10;;;6.45;;
39654;SDS011;25336;59.944;11.010;2023-03-23T03:00:37;23.17;;;7.30;;
39654;SDS011;25336;59.944;11.010;2023-03-23T03:03:03;24.85;;;5.90;;
39654;SDS011;25336;59.944;11.010;2023-03-23T03:08:09;24.70;;;5.93;;
39654;SDS011;25336;59.944;11.010;2023-03-23T03:10:52;19.42;;;4.72;;
39654;SDS011;25336;59.944;11.010;2023-03-23T03:13:41;20.00;;;5.60;;
39654;SDS011;25336;59.944;11.010;2023-03-23T03:18:50;31.88;;;6.13;;
39654;SDS011;25336;59.944;11.010;2023-03-23T03:21:17;29.40;;;5.88;;
39654;SDS011;25336;59.944;11.010;2023-03-23T03:23:50;22.70;;;5.20;;
39654;SDS011;25336;59.944;11.010;2023-03-23T03:26:19;20.25;;;5.07;;
39654;SDS011;25336;59.944;11.010;2023-03-23T03:28:51;33.30;;;5.85;;
39654;SDS011;25336;59.944;11.010;2023-03-23T03:31:19;21.77;;;5.10;;
39654;SDS011;25336;59.944;11.010;2023-03-23T03:33:48;19.67;;;5.07;;
39654;SDS011;25336;59.944;11.010;2023-03-23T03:36:16;25.52;;;4.75;;
39654;SDS011;25336;59.944;11.010;2023-03-23T03:38:46;17.40;;;4.78;;
39654;SDS011;25336;59.944;11.010;2023-03-23T03:41:14;17.52;;;4.85;;
39654;SDS011;25336;59.944;11.010;2023-03-23T03:43:40;23.10;;;5.05;;
39654;SDS011;25336;59.944;11.010;2023-03-23T03:46:05;21.80;;;4.55;;
39654;SDS011;25336;59.944;11.010;2023-03-23T03:48:32;18.67;;;4.75;;
39654;SDS011;25336;59.944;11.010;2023-03-23T03:50:57;15.25;;;4.72;;
39654;SDS011;25336;59.944;11.010;2023-03-23T03:53:25;18.55;;;4.38;;
39654;SDS011;25336;59.944;11.010;2023-03-23T03:55:51;16.25;;;4.35;;
39654;SDS011;25336;59.944;11.010;2023-03-23T03:58:20;21.23;;;5.72;;
39654;SDS011;25336;59.944;11.010;2023-03-23T04:00:47;20.20;;;5.25;;
39654;SDS011;25336;59.944;11.010;2023-03-23T04:03:13;26.33;;;5.93;;
39654;SDS011;25336;59.944;11.010;2023-03-23T04:05:39;25.58;;;4.85;;
39654;SDS011;25336;59.944;11.010;2023-03-23T04:08:05;21.63;;;5.20;;
39654;SDS011;25336;59.944;11.010;2023-03-23T04:10:31;19.45;;;5.32;;
39654;SDS011;25336;59.944;11.010;2023-03-23T04:12:57;19.00;;;4.25;;
39654;SDS011;25336;59.944;11.010;2023-03-23T04:15:22;13.73;;;4.82;;
39654;SDS011;25336;59.944;11.010;2023-03-23T04:17:48;26.35;;;4.82;;
39654;SDS011;25336;59.944;11.010;2023-03-23T04:20:15;21.10;;;5.20;;
39654;SDS011;25336;59.944;11.010;2023-03-23T04:22:43;25.13;;;5.00;;
39654;SDS011;25336;59.944;11.010;2023-03-23T04:25:10;29.02;;;4.97;;
39654;SDS011;25336;59.944;11.010;2023-03-23T04:27:39;16.63;;;4.25;;
39654;SDS011;25336;59.944;11.010;2023-03-23T04:30:08;19.42;;;4.47;;
39654;SDS011;25336;59.944;11.010;2023-03-23T04:32:34;18.65;;;4.68;;
39654;SDS011;25336;59.944;11.010;2023-03-23T04:35:00;20.20;;;4.55;;
39654;SDS011;25336;59.944;11.010;2023-03-23T04:37:26;16.52;;;4.40;;
39654;SDS011;25336;59.944;11.010;2023-03-23T04:39:56;19.05;;;4.30;;
39654;SDS011;25336;59.944;11.010;2023-03-23T04:42:29;15.10;;;3.58;;
39654;SDS011;25336;59.944;11.010;2023-03-23T04:44:56;16.02;;;3.65;;
39654;SDS011;25336;59.944;11.010;2023-03-23T04:47:22;19.00;;;5.30;;
39654;SDS011;25336;59.944;11.010;2023-03-23T04:49:48;15.48;;;5.60;;
39654;SDS011;25336;59.944;11.010;2023-03-23T04:52:14;12.40;;;3.30;;
39654;SDS011;25336;59.944;11.010;2023-03-23T04:54:39;23.13;;;5.07;;
39654;SDS011;25336;59.944;11.010;2023-03-23T04:57:05;22.60;;;4.32;;
39654;SDS011;25336;59.944;11.010;2023-03-23T04:59:33;23.25;;;5.15;;
39654;SDS011;25336;59.944;11.010;2023-03-23T05:01:59;22.55;;;4.25;;
39654;SDS011;25336;59.944;11.010;2023-03-23T05:04:24;19.08;;;5.03;;
39654;SDS011;25336;59.944;11.010;2023-03-23T05:06:50;16.75;;;4.05;;
39654;SDS011;25336;59.944;11.010;2023-03-23T05:09:16;26.13;;;4.53;;
39654;SDS011;25336;59.944;11.010;2023-03-23T05:11:42;10.57;;;3.70;;
39654;SDS011;25336;59.944;11.010;2023-03-23T05:14:08;23.75;;;4.95;;
39654;SDS011;25336;59.944;11.010;2023-03-23T05:16:33;22.42;;;4.68;;
39654;SDS011;25336;59.944;11.010;2023-03-23T05:19:01;20.52;;;4.47;;
39654;SDS011;25336;59.944;11.010;2023-03-23T05:21:27;14.60;;;4.38;;
39654;SDS011;25336;59.944;11.010;2023-03-23T05:23:53;22.33;;;5.18;;
39654;SDS011;25336;59.944;11.010;2023-03-23T05:26:19;18.55;;;4.47;;
39654;SDS011;25336;59.944;11.010;2023-03-23T05:28:45;19.67;;;5.38;;
39654;SDS011;25336;59.944;11.010;2023-03-23T05:31:11;20.58;;;4.40;;
39654;SDS011;25336;59.944;11.010;2023-03-23T05:33:38;25.15;;;6.20;;
39654;SDS011;25336;59.944;11.010;2023-03-23T05:36:03;18.88;;;4.68;;
39654;SDS011;25336;59.944;11.010;2023-03-23T05:38:31;20.25;;;4.70;;
39654;SDS011;25336;59.944;11.010;2023-03-23T05:41:00;18.42;;;5.53;;
39654;SDS011;25336;59.944;11.010;2023-03-23T05:43:26;23.15;;;6.20;;
39654;SDS011;25336;59.944;11.010;2023-03-23T05:45:52;24.63;;;5.70;;
39654;SDS011;25336;59.944;11.010;2023-03-23T05:48:17;23.52;;;5.82;;
39654;SDS011;25336;59.944;11.010;2023-03-23T05:50:43;19.65;;;4.57;;
39654;SDS011;25336;59.944;11.010;2023-03-23T05:53:10;18.33;;;4.75;;
39654;SDS011;25336;59.944;11.010;2023-03-23T05:55:36;20.13;;;5.60;;
39654;SDS011;25336;59.944;11.010;2023-03-23T05:58:01;13.70;;;4.53;;
39654;SDS011;25336;59.944;11.010;2023-03-23T06:00:27;17.80;;;4.82;;
39654;SDS011;25336;59.944;11.010;2023-03-23T06:02:55;23.67;;;5.03;;
39654;SDS011;25336;59.944;11.010;2023-03-23T06:05:21;14.27;;;3.95;;
39654;SDS011;25336;59.944;11.010;2023-03-23T06:07:47;18.05;;;4.22;;
39654;SDS011;25336;59.944;11.010;2023-03-23T06:10:13;16.27;;;3.97;;
39654;SDS011;25336;59.944;11.010;2023-03-23T06:12:39;19.83;;;4.70;;
39654;SDS011;25336;59.944;11.010;2023-03-23T06:15:06;26.13;;;4.72;;
39654;SDS011;25336;59.944;11.010;2023-03-23T06:17:32;10.93;;;3.72;;
39654;SDS011;25336;59.944;11.010;2023-03-23T06:19:58;17.98;;;4.65;;
39654;SDS011;25336;59.944;11.010;2023-03-23T06:22:24;14.27;;;4.22;;
39654;SDS011;25336;59.944;11.010;2023-03-23T06:24:51;15.88;;;3.75;;
39654;SDS011;25336;59.944;11.010;2023-03-23T06:27:17;14.88;;;4.85;;
39654;SDS011;25336;59.944;11.010;2023-03-23T06:29:42;12.95;;;4.07;;
39654;SDS011;25336;59.944;11.010;2023-03-23T06:32:11;21.13;;;4.50;;
39654;SDS011;25336;59.944;11.010;2023-03-23T06:34:38;22.20;;;5.60;;
39654;SDS011;25336;59.944;11.010;2023-03-23T06:37:05;13.88;;;4.85;;
39654;SDS011;25336;59.944;11.010;2023-03-23T06:39:31;17.52;;;5.22;;
39654;SDS011;25336;59.944;11.010;2023-03-23T06:41:57;21.45;;;4.90;;
39654;SDS011;25336;59.944;11.010;2023-03-23T06:44:24;15.73;;;4.18;;
39654;SDS011;25336;59.944;11.010;2023-03-23T06:46:50;18.38;;;5.20;;
39654;SDS011;25336;59.944;11.010;2023-03-23T06:49:16;22.80;;;5.25;;
39654;SDS011;25336;59.944;11.010;2023-03-23T06:51:41;25.23;;;5.13;;
39654;SDS011;25336;59.944;11.010;2023-03-23T06:54:07;23.35;;;6.18;;
39654;SDS011;25336;59.944;11.010;2023-03-23T06:56:32;17.05;;;5.25;;
39654;SDS011;25336;59.944;11.010;2023-03-23T06:58:59;21.25;;;5.72;;
39654;SDS011;25336;59.944;11.010;2023-03-23T07:01:24;16.98;;;5.28;;
39654;SDS011;25336;59.944;11.010;2023-03-23T07:03:52;24.10;;;5.50;;
39654;SDS011;25336;59.944;11.010;2023-03-23T07:06:17;26.25;;;6.57;;
39654;SDS011;25336;59.944;11.010;2023-03-23T07:08:44;25.83;;;6.63;;
39654;SDS011;25336;59.944;11.010;2023-03-23T07:11:09;17.25;;;4.75;;
39654;SDS011;25336;59.944;11.010;2023-03-23T07:13:35;20.88;;;5.68;;
39654;SDS011;25336;59.944;11.010;2023-03-23T07:16:03;22.10;;;6.07;;
39654;SDS011;25336;59.944;11.010;2023-03-23T07:18:31;19.48;;;5.25;;
39654;SDS011;25336;59.944;11.010;2023-03-23T07:20:56;24.60;;;5.97;;
39654;SDS011;25336;59.944;11.010;2023-03-23T07:23:22;22.98;;;5.97;;
39654;SDS011;25336;59.944;11.010;2023-03-23T07:25:47;21.00;;;5.65;;
39654;SDS011;25336;59.944;11.010;2023-03-23T07:28:13;26.13;;;5.82;;
39654;SDS011;25336;59.944;11.010;2023-03-23T07:30:40;21.85;;;6.15;;
39654;SDS011;25336;59.944;11.010;2023-03-23T07:33:06;18.17;;;5.32;;
39654;SDS011;25336;59.944;11.010;2023-03-23T07:35:33;24.65;;;5.53;;
39654;SDS011;25336;59.944;11.010;2023-03-23T07:38:00;17.95;;;5.50;;
39654;SDS011;25336;59.944;11.010;2023-03-23T07:40:27;21.55;;;5.00;;
39654;SDS011;25336;59.944;11.010;2023-03-23T07:42:53;17.55;;;5.72;;
39654;SDS011;25336;59.944;11.010;2023-03-23T07:45:20;21.60;;;5.72;;
39654;SDS011;25336;59.944;11.010;2023-03-23T07:47:46;18.13;;;5.10;;
39654;SDS011;25336;59.944;11.010;2023-03-23T07:50:12;17.42;;;5.18;;
39654;SDS011;25336;59.944;11.010;2023-03-23T07:52:39;21.48;;;5.20;;
39654;SDS011;25336;59.944;11.010;2023-03-23T07:55:06;14.55;;;5.13;;
39654;SDS011;25336;59.944;11.010;2023-03-23T07:57:34;24.40;;;8.07;;
39654;SDS011;25336;59.944;11.010;2023-03-23T07:59:59;15.93;;;5.43;;
39654;SDS011;25336;59.944;11.010;2023-03-23T08:02:25;21.52;;;5.60;;
39654;SDS011;25336;59.944;11.010;2023-03-23T08:04:51;18.85;;;6.10;;
39654;SDS011;25336;59.944;11.010;2023-03-23T08:07:18;19.17;;;5.40;;
39654;SDS011;25336;59.944;11.010;2023-03-23T08:09:45;15.85;;;5.40;;
39654;SDS011;25336;59.944;11.010;2023-03-23T08:12:12;20.70;;;7.35;;
39654;SDS011;25336;59.944;11.010;2023-03-23T08:14:38;17.17;;;6.85;;
39654;SDS011;25336;59.944;11.010;2023-03-23T08:17:06;19.73;;;5.50;;
39654;SDS011;25336;59.944;11.010;2023-03-23T08:19:33;18.73;;;5.35;;
39654;SDS011;25336;59.944;11.010;2023-03-23T08:22:02;19.42;;;4.97;;
39654;SDS011;25336;59.944;11.010;2023-03-23T08:24:28;16.13;;;6.18;;
39654;SDS011;25336;59.944;11.010;2023-03-23T08:26:53;18.15;;;5.07;;
39654;SDS011;25336;59.944;11.010;2023-03-23T08:29:19;14.25;;;5.53;;
39654;SDS011;25336;59.944;11.010;2023-03-23T08:31:45;11.52;;;5.90;;
39654;SDS011;25336;59.944;11.010;2023-03-23T08:34:10;12.98;;;4.95;;
39654;SDS011;25336;59.944;11.010;2023-03-23T08:36:36;20.48;;;6.07;;
39654;SDS011;25336;59.944;11.010;2023-03-23T08:39:02;16.95;;;5.13;;
39654;SDS011;25336;59.944;11.010;2023-03-23T08:41:30;22.67;;;5.65;;
39654;SDS011;25336;59.944;11.010;2023-03-23T08:43:56;15.23;;;5.10;;
39654;SDS011;25336;59.944;11.010;2023-03-23T08:46:22;15.95;;;5.18;;
39654;SDS011;25336;59.944;11.010;2023-03-23T08:48:47;18.88;;;6.00;;
39654;SDS011;25336;59.944;11.010;2023-03-23T08:51:13;20.05;;;5.72;;
39654;SDS011;25336;59.944;11.010;2023-03-23T08:53:38;16.10;;;5.15;;
39654;SDS011;25336;59.944;11.010;2023-03-23T08:56:05;15.82;;;5.63;;
39654;SDS011;25336;59.944;11.010;2023-03-23T08:58:32;16.60;;;4.65;;
39654;SDS011;25336;59.944;11.010;2023-03-23T09:01:02;12.25;;;4.70;;
39654;SDS011;25336;59.944;11.010;2023-03-23T09:03:31;15.75;;;5.38;;
39654;SDS011;25336;59.944;11.010;2023-03-23T09:06:00;15.07;;;5.18;;
39654;SDS011;25336;59.944;11.010;2023-03-23T09:08:28;10.00;;;4.10;;
39654;SDS011;25336;59.944;11.010;2023-03-23T09:10:58;8.52;;;4.22;;
39654;SDS011;25336;59.944;11.010;2023-03-23T09:13:24;8.18;;;4.10;;
39654;SDS011;25336;59.944;11.010;2023-03-23T09:15:50;7.78;;;3.28;;
39654;SDS011;25336;59.944;11.010;2023-03-23T09:18:17;6.47;;;3.17;;
39654;SDS011;25336;59.944;11.010;2023-03-23T09:20:43;6.20;;;2.97;;
39654;SDS011;25336;59.944;11.010;2023-03-23T09:23:09;6.65;;;3.40;;
39654;SDS011;25336;59.944;11.010;2023-03-23T09:25:35;8.00;;;2.83;;
39654;SDS011;25336;59.944;11.010;2023-03-23T09:28:00;4.75;;;2.58;;
39654;SDS011;25336;59.944;11.010;2023-03-23T09:30:27;26.70;;;11.32;;
39654;SDS011;25336;59.944;11.010;2023-03-23T09:32:55;10.65;;;4.85;;
39654;SDS011;25336;59.944;11.010;2023-03-23T09:35:22;5.03;;;3.25;;
39654;SDS011;25336;59.944;11.010;2023-03-23T09:37:49;5.47;;;2.78;;
39654;SDS011;25336;59.944;11.010;2023-03-23T09:40:17;6.53;;;2.60;;
39654;SDS011;25336;59.944;11.010;2023-03-23T09:48:31;3.22;;;2.05;;
39654;SDS011;25336;59.944;11.010;2023-03-23T09:54:11;4.28;;;1.67;;
39654;SDS011;25336;59.944;11.010;2023-03-23T09:56:44;1.90;;;1.70;;
39654;SDS011;25336;59.944;11.010;2023-03-23T09:59:16;3.28;;;1.92;;
39654;SDS011;25336;59.944;11.010;2023-03-23T10:01:45;3.83;;;1.77;;
39654;SDS011;25336;59.944;11.010;2023-03-23T10:07:10;3.55;;;1.52;;
39654;SDS011;25336;59.944;11.010;2023-03-23T10:09:38;3.80;;;1.85;;
39654;SDS011;25336;59.944;11.010;2023-03-23T10:12:19;1.58;;;1.48;;
39654;SDS011;25336;59.944;11.010;2023-03-23T10:15:18;2.78;;;1.80;;
39654;SDS011;25336;59.944;11.010;2023-03-23T10:25:48;2.80;;;2.10;;
39654;SDS011;25336;59.944;11.010;2023-03-23T10:28:42;1.35;;;1.25;;
39654;SDS011;25336;59.944;11.010;2023-03-23T10:31:12;2.78;;;1.70;;
39654;SDS011;25336;59.944;11.010;2023-03-23T10:33:44;2.00;;;1.45;;
39654;SDS011;25336;59.944;11.010;2023-03-23T10:36:17;2.25;;;1.50;;
39654;SDS011;25336;59.944;11.010;2023-03-23T10:41:41;3.88;;;1.83;;
39654;SDS011;25336;59.944;11.010;2023-03-23T10:44:17;1.95;;;1.30;;
39654;SDS011;25336;59.944;11.010;2023-03-23T10:47:05;3.05;;;1.50;;
39654;SDS011;25336;59.944;11.010;2023-03-23T10:49:52;2.75;;;1.50;;
39654;SDS011;25336;59.944;11.010;2023-03-23T10:54:50;2.03;;;1.55;;
39654;SDS011;25336;59.944;11.010;2023-03-23T10:57:27;3.05;;;2.08;;
39654;SDS011;25336;59.944;11.010;2023-03-23T11:02:58;1.50;;;1.40;;
39654;SDS011;25336;59.944;11.010;2023-03-23T11:05:25;1.33;;;1.23;;
39654;SDS011;25336;59.944;11.010;2023-03-23T11:08:02;2.38;;;1.30;;
39654;SDS011;25336;59.944;11.010;2023-03-23T11:10:41;1.65;;;1.08;;
39654;SDS011;25336;59.944;11.010;2023-03-23T11:13:14;1.05;;;0.90;;
39654;SDS011;25336;59.944;11.010;2023-03-23T11:15:42;2.80;;;1.42;;
39654;SDS011;25336;59.944;11.010;2023-03-23T11:18:23;2.97;;;1.33;;
39654;SDS011;25336;59.944;11.010;2023-03-23T11:20:54;1.60;;;1.40;;
39654;SDS011;25336;59.944;11.010;2023-03-23T11:23:29;2.00;;;1.27;;
39654;SDS011;25336;59.944;11.010;2023-03-23T11:28:48;2.03;;;1.20;;
39654;SDS011;25336;59.944;11.010;2023-03-23T11:31:21;1.17;;;1.00;;
39654;SDS011;25336;59.944;11.010;2023-03-23T11:34:18;1.42;;;1.02;;
39654;SDS011;25336;59.944;11.010;2023-03-23T11:36:53;1.23;;;0.82;;
39654;SDS011;25336;59.944;11.010;2023-03-23T11:39:28;4.07;;;1.25;;
39654;SDS011;25336;59.944;11.010;2023-03-23T11:41:55;2.25;;;1.00;;
39654;SDS011;25336;59.944;11.010;2023-03-23T11:44:24;2.25;;;1.05;;
39654;SDS011;25336;59.944;11.010;2023-03-23T11:49:42;5.72;;;1.13;;
39654;SDS011;25336;59.944;11.010;2023-03-23T11:58:01;2.65;;;1.55;;
39654;SDS011;25336;59.944;11.010;2023-03-23T12:00:38;1.98;;;1.40;;
39654;SDS011;25336;59.944;11.010;2023-03-23T12:14:37;2.42;;;2.15;;
39654;SDS011;25336;59.944;11.010;2023-03-23T12:19:50;4.68;;;2.78;;
39654;SDS011;25336;59.944;11.010;2023-03-23T12:22:32;2.75;;;2.15;;
39654;SDS011;25336;59.944;11.010;2023-03-23T12:31:25;8.90;;;6.03;;
39654;SDS011;25336;59.944;11.010;2023-03-23T12:36:19;5.00;;;3.10;;
39654;SDS011;25336;59.944;11.010;2023-03-23T12:42:09;6.25;;;3.20;;
39654;SDS011;25336;59.944;11.010;2023-03-23T12:44:46;3.85;;;2.67;;
39654;SDS011;25336;59.944;11.010;2023-03-23T12:47:23;4.53;;;2.50;;
39654;SDS011;25336;59.944;11.010;2023-03-23T12:50:05;5.20;;;2.95;;
39654;SDS011;25336;59.944;11.010;2023-03-23T12:53:09;7.20;;;3.08;;
39654;SDS011;25336;59.944;11.010;2023-03-23T12:55:50;3.65;;;2.35;;
39654;SDS011;25336;59.944;11.010;2023-03-23T12:58:19;13.70;;;3.42;;
39654;SDS011;25336;59.944;11.010;2023-03-23T13:06:31;3.95;;;2.55;;
39654;SDS011;25336;59.944;11.010;2023-03-23T13:09:09;4.90;;;2.58;;
39654;SDS011;25336;59.944;11.010;2023-03-23T13:11:40;4.30;;;2.17;;
39654;SDS011;25336;59.944;11.010;2023-03-23T13:22:27;3.08;;;2.55;;
39654;SDS011;25336;59.944;11.010;2023-03-23T13:25:01;5.35;;;2.85;;
39654;SDS011;25336;59.944;11.010;2023-03-23T13:27:31;11.02;;;3.42;;
39654;SDS011;25336;59.944;11.010;2023-03-23T13:29:57;5.03;;;3.85;;
39654;SDS011;25336;59.944;11.010;2023-03-23T13:32:32;5.53;;;3.92;;
39654;SDS011;25336;59.944;11.010;2023-03-23T13:35:01;5.25;;;3.95;;
39654;SDS011;25336;59.944;11.010;2023-03-23T13:37:29;7.72;;;5.25;;
39654;SDS011;25336;59.944;11.010;2023-03-23T13:39:56;9.07;;;4.00;;
39654;SDS011;25336;59.944;11.010;2023-03-23T13:42:26;7.60;;;3.47;;
39654;SDS011;25336;59.944;11.010;2023-03-23T13:50:59;7.95;;;5.07;;
39654;SDS011;25336;59.944;11.010;2023-03-23T13:58:49;9.07;;;5.53;;
39654;SDS011;25336;59.944;11.010;2023-03-23T14:01:34;9.95;;;6.75;;
39654;SDS011;25336;59.944;11.010;2023-03-23T14:04:04;7.90;;;5.30;;
39654;SDS011;25336;59.944;11.010;2023-03-23T14:06:34;8.80;;;6.73;;
39654;SDS011;25336;59.944;11.010;2023-03-23T14:09:10;10.48;;;5.47;;
39654;SDS011;25336;59.944;11.010;2023-03-23T14:14:32;9.05;;;4.50;;
39654;SDS011;25336;59.944;11.010;2023-03-23T14:19:37;2.90;;;2.45;;
39654;SDS011;25336;59.944;11.010;2023-03-23T14:22:05;3.97;;;3.25;;
39654;SDS011;25336;59.944;11.010;2023-03-23T14:24:48;4.68;;;3.72;;
39654;SDS011;25336;59.944;11.010;2023-03-23T14:27:17;5.30;;;3.75;;
39654;SDS011;25336;59.944;11.010;2023-03-23T14:29:45;8.05;;;4.13;;
39654;SDS011;25336;59.944;11.010;2023-03-23T14:32:15;6.10;;;4.32;;
39654;SDS011;25336;59.944;11.010;2023-03-23T14:34:44;14.50;;;5.47;;
39654;SDS011;25336;59.944;11.010;2023-03-23T14:37:13;45.42;;;17.02;;
39654;SDS011;25336;59.944;11.010;2023-03-23T14:39:43;11.38;;;6.20;;
39654;SDS011;25336;59.944;11.010;2023-03-23T14:42:11;11.63;;;6.43;;
39654;SDS011;25336;59.944;11.010;2023-03-23T14:44:40;11.48;;;5.80;;
39654;SDS011;25336;59.944;11.010;2023-03-23T14:47:22;5.50;;;4.30;;
39654;SDS011;25336;59.944;11.010;2023-03-23T14:49:58;9.25;;;5.20;;
39654;SDS011;25336;59.944;11.010;2023-03-23T14:52:26;7.65;;;4.05;;
39654;SDS011;25336;59.944;11.010;2023-03-23T14:54:53;4.80;;;3.55;;
39654;SDS011;25336;59.944;11.010;2023-03-23T14:57:26;5.10;;;3.40;;
39654;SDS011;25336;59.944;11.010;2023-03-23T14:59:53;4.70;;;3.05;;
39654;SDS011;25336;59.944;11.010;2023-03-23T15:02:22;4.88;;;2.65;;
39654;SDS011;25336;59.944;11.010;2023-03-23T15:04:49;4.15;;;3.17;;
39654;SDS011;25336;59.944;11.010;2023-03-23T15:07:20;8.23;;;4.07;;
39654;SDS011;25336;59.944;11.010;2023-03-23T15:09:50;7.05;;;4.80;;
39654;SDS011;25336;59.944;11.010;2023-03-23T15:12:21;9.95;;;5.60;;
39654;SDS011;25336;59.944;11.010;2023-03-23T15:14:50;7.03;;;4.93;;
39654;SDS011;25336;59.944;11.010;2023-03-23T15:17:25;5.70;;;4.28;;
39654;SDS011;25336;59.944;11.010;2023-03-23T15:19:53;8.35;;;6.43;;
39654;SDS011;25336;59.944;11.010;2023-03-23T15:22:22;8.85;;;6.60;;
39654;SDS011;25336;59.944;11.010;2023-03-23T15:27:38;17.42;;;13.82;;
39654;SDS011;25336;59.944;11.010;2023-03-23T15:30:18;24.60;;;14.77;;
39654;SDS011;25336;59.944;11.010;2023-03-23T15:33:04;57.05;;;30.33;;
39654;SDS011;25336;59.944;11.010;2023-03-23T15:35:36;21.60;;;13.40;;
39654;SDS011;25336;59.944;11.010;2023-03-23T15:38:04;39.70;;;19.90;;
39654;SDS011;25336;59.944;11.010;2023-03-23T15:40:32;22.70;;;13.15;;
39654;SDS011;25336;59.944;11.010;2023-03-23T15:45:57;9.38;;;5.93;;
39654;SDS011;25336;59.944;11.010;2023-03-23T15:51:17;17.20;;;13.13;;
39654;SDS011;25336;59.944;11.010;2023-03-23T15:53:44;16.58;;;12.85;;
39654;SDS011;25336;59.944;11.010;2023-03-23T15:56:11;11.90;;;9.63;;
39654;SDS011;25336;59.944;11.010;2023-03-23T15:58:37;12.05;;;9.07;;
39654;SDS011;25336;59.944;11.010;2023-03-23T16:01:15;8.98;;;8.05;;
39654;SDS011;25336;59.944;11.010;2023-03-23T16:03:54;10.45;;;9.00;;
39654;SDS011;25336;59.944;11.010;2023-03-23T16:06:25;11.10;;;7.70;;
39654;SDS011;25336;59.944;11.010;2023-03-23T16:08:54;9.75;;;6.50;;
39654;SDS011;25336;59.944;11.010;2023-03-23T16:11:20;7.25;;;6.25;;
39654;SDS011;25336;59.944;11.010;2023-03-23T16:13:46;9.43;;;6.82;;
39654;SDS011;25336;59.944;11.010;2023-03-23T16:16:13;6.32;;;4.45;;
39654;SDS011;25336;59.944;11.010;2023-03-23T16:18:40;5.78;;;4.30;;
39654;SDS011;25336;59.944;11.010;2023-03-23T16:21:05;3.53;;;3.08;;
39654;SDS011;25336;59.944;11.010;2023-03-23T16:23:31;2.75;;;2.55;;
39654;SDS011;25336;59.944;11.010;2023-03-23T16:25:57;1.70;;;1.60;;
39654;SDS011;25336;59.944;11.010;2023-03-23T16:28:22;1.80;;;1.70;;
39654;SDS011;25336;59.944;11.010;2023-03-23T16:30:48;1.50;;;1.40;;
39654;SDS011;25336;59.944;11.010;2023-03-23T16:33:14;1.50;;;1.40;;
39654;SDS011;25336;59.944;11.010;2023-03-23T16:35:39;2.08;;;1.88;;
39654;SDS011;25336;59.944;11.010;2023-03-23T16:38:05;3.53;;;2.60;;
39654;SDS011;25336;59.944;11.010;2023-03-23T16:40:31;2.08;;;1.88;;
39654;SDS011;25336;59.944;11.010;2023-03-23T16:42:57;2.08;;;1.70;;
39654;SDS011;25336;59.944;11.010;2023-03-23T16:45:23;2.15;;;1.98;;